Time;durP1;ratioP1;P1;durP2;ratioP2;P2;SDS_P1;SDS_P2;PMS_P1;PMS_P2;Temp;Humidity;BMP_temperature;BMP_pressure;BME280_temperature;BME280_humidity;BME280_pressure;Samples;Min_cycle;Max_cycle;Signal;HPM_P1;HPM_P2
2021/08/11 00:02:39;;;;;;;9.68;4.10;;;29.10;39.30;;;;;;21123779;27;81044;-69
2021/08/11 00:12:40;;;;;;;15.55;4.80;;;29.20;39.10;;;;;;21122931;27;80030;-66
2021/08/11 00:22:42;;;;;;;8.35;4.07;;;29.00;39.00;;;;;;21121867;27;80711;-71
2021/08/11 00:32:43;;;;;;;12.20;6.10;;;29.00;39.60;;;;;;21121432;27;80450;-67
2021/08/11 00:42:46;;;;;;;16.02;4.60;;;28.80;41.30;;;;;;21123111;27;82332;-69
2021/08/11 00:52:47;;;;;;;19.58;5.32;;;28.90;41.10;;;;;;21120798;27;80894;-69
2021/08/11 01:02:51;;;;;;;23.73;4.53;;;29.00;40.10;;;;;;21119486;27;80908;-63
2021/08/11 01:12:53;;;;;;;20.55;5.95;;;29.10;39.40;;;;;;21136665;27;80810;-65
2021/08/11 01:23:04;;;;;;;19.08;4.35;;;29.10;39.60;;;;;;21136706;27;81034;-62
2021/08/11 01:33:33;;;;;;;23.48;4.32;;;29.10;39.50;;;;;;21130937;27;82825;-65
2021/08/11 01:43:42;;;;;;;18.33;3.80;;;29.00;40.90;;;;;;21150157;27;80781;-66
2021/08/11 01:53:43;;;;;;;21.35;4.75;;;28.70;42.20;;;;;;21132015;27;81907;-62
2021/08/11 02:03:45;;;;;;;22.52;4.82;;;28.40;42.10;;;;;;21130939;27;80532;-62
2021/08/11 02:13:47;;;;;;;24.48;4.55;;;28.40;42.30;;;;;;21131073;27;81868;-63
2021/08/11 02:23:48;;;;;;;16.13;4.78;;;28.40;42.50;;;;;;21147756;27;81974;-66
2021/08/11 02:34:14;;;;;;;11.35;3.63;;;28.20;43.00;;;;;;21147268;27;80706;-61
2021/08/11 02:44:40;;;;;;;13.30;3.60;;;28.20;43.40;;;;;;21145122;27;81840;-66
2021/08/11 02:54:44;;;;;;;17.67;4.00;;;28.10;43.00;;;;;;21128040;27;80834;-63
2021/08/11 03:04:46;;;;;;;12.75;4.10;;;27.90;43.90;;;;;;21126197;27;81177;-66
2021/08/11 03:14:48;;;;;;;12.07;3.78;;;27.80;43.70;;;;;;21126526;27;80885;-66
2021/08/11 03:24:51;;;;;;;15.75;4.85;;;27.60;45.40;;;;;;21144136;27;82392;-67
2021/08/11 03:34:53;;;;;;;18.77;5.25;;;27.50;44.80;;;;;;21124698;27;80091;-66
2021/08/11 03:44:54;;;;;;;18.95;5.05;;;27.30;48.30;;;;;;21123779;27;80795;-70
2021/08/11 03:54:56;;;;;;;20.05;5.10;;;27.00;45.90;;;;;;21123273;27;81703;-69
2021/08/11 04:04:57;;;;;;;19.42;4.70;;;26.60;45.80;;;;;;21123382;27;81841;-66
2021/08/11 04:14:58;;;;;;;13.93;4.03;;;26.50;47.80;;;;;;21140761;27;80844;-64
2021/08/11 04:25:00;;;;;;;16.15;4.90;;;26.40;48.40;;;;;;21121904;27;81614;-66
2021/08/11 04:35:05;;;;;;;18.08;5.40;;;26.40;48.00;;;;;;21139421;27;80119;-64
2021/08/11 04:45:08;;;;;;;12.23;4.72;;;26.40;48.60;;;;;;21121602;27;80184;-64
2021/08/11 04:55:12;;;;;;;15.90;4.78;;;26.40;47.30;;;;;;21120248;27;81124;-64
2021/08/11 05:05:14;;;;;;;20.00;5.22;;;26.40;47.90;;;;;;21128146;27;79967;-64
2021/08/11 05:15:16;;;;;;;16.45;5.88;;;26.40;48.80;;;;;;21134219;27;81391;-66
2021/08/11 05:25:18;;;;;;;27.10;6.03;;;26.30;49.20;;;;;;21151562;27;80777;-68
2021/08/11 05:35:24;;;;;;;21.95;4.97;;;26.20;52.60;;;;;;21134380;27;80797;-63
2021/08/11 05:45:31;;;;;;;16.83;4.60;;;26.20;50.80;;;;;;21135190;27;80718;-65
2021/08/11 05:55:34;;;;;;;20.08;5.15;;;26.30;50.10;;;;;;21132651;27;81443;-62
2021/08/11 06:05:39;;;;;;;18.48;5.90;;;26.30;49.50;;;;;;21129386;27;80802;-62
2021/08/11 06:15:41;;;;;;;19.98;5.82;;;26.40;48.10;;;;;;21144759;27;81395;-65
2021/08/11 06:25:43;;;;;;;24.15;5.63;;;26.60;47.50;;;;;;21125173;27;81098;-65
2021/08/11 06:35:48;;;;;;;24.17;4.72;;;26.80;47.00;;;;;;21125680;27;81098;-69
2021/08/11 06:45:55;;;;;;;24.92;5.47;;;27.00;48.10;;;;;;21125642;27;81045;-67
2021/08/11 06:55:59;;;;;;;17.63;5.72;;;27.40;45.50;;;;;;21076174;27;1320074;-66
2021/08/11 07:06:06;;;;;;;25.42;5.82;;;27.60;44.80;;;;;;21128398;27;81048;-65
2021/08/11 07:16:08;;;;;;;15.50;4.90;;;27.80;44.70;;;;;;21128122;27;82101;-64
2021/08/11 07:26:10;;;;;;;26.33;5.30;;;27.90;44.60;;;;;;21126116;27;81228;-71
2021/08/11 07:36:13;;;;;;;28.15;5.28;;;28.00;43.90;;;;;;21126290;27;81693;-64
2021/08/11 07:46:29;;;;;;;18.23;4.72;;;28.40;42.90;;;;;;21143703;27;82049;-69
2021/08/11 07:56:30;;;;;;;23.27;5.75;;;28.70;42.90;;;;;;21124623;27;80126;-72
2021/08/11 08:06:33;;;;;;;13.70;4.60;;;29.00;41.30;;;;;;21123687;27;80766;-70
2021/08/11 08:16:35;;;;;;;20.10;4.45;;;29.40;41.20;;;;;;21123271;27;80971;-65
2021/08/11 08:26:45;;;;;;;;;;;29.80;40.70;;;;;;21124348;27;80764;-65
2021/08/11 08:36:50;;;;;;;22.33;5.05;;;30.20;39.80;;;;;;21163061;27;81065;-68
2021/08/11 08:46:55;;;;;;;17.65;5.05;;;30.40;38.80;;;;;;21122094;27;79982;-65
2021/08/11 08:57:09;;;;;;;13.52;3.85;;;30.70;38.40;;;;;;21138665;27;80399;-66
2021/08/11 09:07:17;;;;;;;19.05;6.47;;;31.10;37.90;;;;;;21138639;27;81000;-68
2021/08/11 09:17:39;;;;;;;18.42;4.70;;;31.40;37.60;;;;;;21122384;27;81963;-70
2021/08/11 09:27:42;;;;;;;28.83;4.90;;;31.60;37.30;;;;;;21137833;27;80277;-66
2021/08/11 09:37:51;;;;;;;28.33;7.57;;;31.80;36.60;;;;;;21120270;27;81077;-62
2021/08/11 09:48:01;;;;;;;37.90;5.22;;;32.00;36.00;;;;;;21140603;27;80670;-62
2021/08/11 09:58:19;;;;;;;30.83;6.28;;;32.40;35.70;;;;;;21150544;27;81118;-62
2021/08/11 10:08:33;;;;;;;27.45;5.35;;;33.00;35.00;;;;;;21149479;27;80829;-64
2021/08/11 10:18:40;;;;;;;41.65;6.90;;;33.90;34.60;;;;;;21149396;27;79948;-64
2021/08/11 10:28:45;;;;;;;44.65;7.25;;;35.00;32.30;;;;;;21131013;27;81080;-63
2021/08/11 10:38:50;;;;;;;35.20;6.88;;;35.70;31.60;;;;;;21129948;27;80646;-66
2021/08/11 10:49:07;;;;;;;24.27;5.47;;;37.20;28.50;;;;;;21147130;27;80194;-64
2021/08/11 10:59:25;;;;;;;30.02;5.32;;;38.30;27.60;;;;;;21127212;27;81686;-70
2021/08/11 11:09:29;;;;;;;25.92;5.97;;;39.90;26.60;;;;;;21128001;27;80016;-69
2021/08/11 11:19:32;;;;;;;35.00;8.73;;;42.30;23.40;;;;;;21129687;27;80727;-65
2021/08/11 11:29:54;;;;;;;37.50;5.50;;;44.50;22.00;;;;;;21144781;27;81297;-63
2021/08/11 11:39:56;;;;;;;41.17;6.75;;;46.40;20.00;;;;;;21144524;27;81307;-63
2021/08/11 11:50:18;;;;;;;27.65;5.95;;;43.50;21.90;;;;;;21125892;27;80784;-62
2021/08/11 12:00:23;;;;;;;50.42;8.10;;;46.60;19.40;;;;;;21123735;27;80720;-65
2021/08/11 12:10:27;;;;;;;32.80;6.28;;;48.90;18.00;;;;;;21141269;27;81092;-63
2021/08/11 12:20:36;;;;;;;36.22;7.78;;;50.40;17.00;;;;;;21123126;27;81942;-62
2021/08/11 12:30:49;;;;;;;39.80;8.15;;;51.30;16.80;;;;;;21122306;27;81064;-66
2021/08/11 12:40:50;;;;;;;31.63;7.15;;;53.20;15.70;;;;;;21121393;27;80430;-64
2021/08/11 12:50:54;;;;;;;38.90;9.30;;;54.30;15.20;;;;;;21139657;27;81125;-64
2021/08/11 13:00:56;;;;;;;38.17;7.93;;;53.40;15.40;;;;;;21138561;27;80189;-65
2021/08/11 13:10:58;;;;;;;32.15;8.00;;;53.30;15.00;;;;;;21120088;27;80700;-71
2021/08/11 13:21:09;;;;;;;42.33;8.38;;;52.70;15.50;;;;;;21123272;27;80750;-69
2021/08/11 13:31:11;;;;;;;42.10;8.57;;;53.10;15.30;;;;;;21135946;27;80002;-72
2021/08/11 13:41:13;;;;;;;29.83;8.70;;;53.40;14.50;;;;;;21132805;27;80396;-67
2021/08/11 13:51:16;;;;;;;33.33;7.78;;;53.70;13.80;;;;;;21152977;27;81758;-66
2021/08/11 14:01:18;;;;;;;36.83;9.15;;;53.60;13.80;;;;;;21150500;27;80722;-70
2021/08/11 14:11:20;;;;;;;34.60;9.60;;;51.70;14.50;;;;;;21130878;27;80764;-65
2021/08/11 14:21:21;;;;;;;32.60;9.02;;;53.50;13.90;;;;;;21148564;27;80784;-66
2021/08/11 14:31:24;;;;;;;33.95;9.32;;;51.30;14.70;;;;;;21129488;27;80792;-64
2021/08/11 14:41:26;;;;;;;39.30;9.25;;;53.10;13.80;;;;;;21147270;27;80535;-67
2021/08/11 14:51:32;;;;;;;30.98;8.18;;;53.40;13.70;;;;;;21129460;27;80884;-66
2021/08/11 15:01:34;;;;;;;24.08;8.50;;;50.00;14.70;;;;;;21129536;27;81340;-63
2021/08/11 15:11:36;;;;;;;33.00;9.23;;;45.00;18.00;;;;;;21146981;27;80183;-62
2021/08/11 15:21:38;;;;;;;35.33;7.70;;;44.50;17.70;;;;;;21128941;27;82194;-66
2021/08/11 15:31:40;;;;;;;46.33;9.35;;;42.30;19.20;;;;;;21126269;27;81819;-63
2021/08/11 15:41:45;;;;;;;30.52;7.65;;;42.80;19.40;;;;;;21143952;27;81877;-73
2021/08/11 15:51:47;;;;;;;33.20;7.38;;;43.10;18.60;;;;;;21124106;27;80867;-72
2021/08/11 16:01:55;;;;;;;43.03;8.60;;;42.80;18.90;;;;;;21124555;27;80748;-66
2021/08/11 16:11:58;;;;;;;35.37;7.53;;;42.40;19.60;;;;;;21142249;27;82729;-67
2021/08/11 16:22:00;;;;;;;35.33;6.68;;;42.40;19.30;;;;;;21140993;27;80024;-72
2021/08/11 16:32:04;;;;;;;37.17;9.05;;;41.60;20.40;;;;;;21123071;27;80692;-71
2021/08/11 16:42:06;;;;;;;35.78;8.63;;;41.80;20.10;;;;;;21123106;27;80927;-63
2021/08/11 16:52:09;;;;;;;42.47;8.25;;;41.20;20.70;;;;;;21121289;27;80687;-64
2021/08/11 17:02:10;;;;;;;37.40;7.72;;;40.70;20.90;;;;;;21150386;27;81079;-63
2021/08/11 17:12:13;;;;;;;38.15;7.68;;;41.60;19.70;;;;;;21137026;27;80526;-63
2021/08/11 17:22:15;;;;;;;37.15;7.50;;;41.00;20.40;;;;;;21137617;27;81065;-62
2021/08/11 17:32:17;;;;;;;36.63;8.15;;;40.10;21.10;;;;;;21137097;27;81812;-64
2021/08/11 17:42:22;;;;;;;32.08;6.57;;;39.90;21.10;;;;;;21136632;27;82742;-66
2021/08/11 17:52:26;;;;;;;39.55;9.65;;;39.50;21.40;;;;;;21133275;27;79947;-64
2021/08/11 18:02:27;;;;;;;42.17;9.18;;;39.80;21.90;;;;;;21150017;27;80754;-66
2021/08/11 18:12:29;;;;;;;36.88;17.20;;;39.50;21.60;;;;;;21131274;27;81273;-65
2021/08/11 18:22:31;;;;;;;42.65;9.50;;;39.00;23.40;;;;;;21136752;27;82659;-62
2021/08/11 18:32:33;;;;;;;27.42;11.50;;;38.20;23.00;;;;;;21130053;27;83729;-63
2021/08/11 18:42:38;;;;;;;35.47;10.60;;;38.20;24.30;;;;;;21118714;27;83070;-62
2021/08/11 18:52:41;;;;;;;45.10;9.25;;;38.10;24.40;;;;;;21118001;27;83392;-67
2021/08/11 19:02:44;;;;;;;85.70;11.50;;;37.60;24.10;;;;;;21128681;27;83861;-66
2021/08/11 19:12:50;;;;;;;62.58;8.88;;;36.00;25.40;;;;;;21135039;27;83081;-66
2021/08/11 19:22:52;;;;;;;54.10;7.35;;;34.70;25.90;;;;;;21126126;27;84547;-63
2021/08/11 19:32:53;;;;;;;39.60;7.07;;;34.60;26.90;;;;;;21145701;27;81043;-67
2021/08/11 19:42:55;;;;;;;30.63;7.45;;;34.50;27.50;;;;;;21126825;27;80681;-62
2021/08/11 19:52:57;;;;;;;29.10;5.97;;;34.20;28.20;;;;;;21144697;27;80378;-63
2021/08/11 20:02:59;;;;;;;36.38;7.28;;;33.90;28.40;;;;;;21125045;27;81736;-68
2021/08/11 20:13:02;;;;;;;40.40;7.15;;;33.70;28.70;;;;;;21124295;27;80627;-65
2021/08/11 20:23:04;;;;;;;29.60;5.03;;;33.50;28.60;;;;;;21124092;27;82728;-63
2021/08/11 20:33:06;;;;;;;26.55;4.18;;;33.50;28.20;;;;;;21122264;27;80494;-64
2021/08/11 20:43:08;;;;;;;30.65;5.90;;;33.00;28.70;;;;;;21121581;27;80521;-63
2021/08/11 20:53:10;;;;;;;26.83;5.45;;;32.70;29.30;;;;;;21140382;27;83764;-63
2021/08/11 21:03:12;;;;;;;24.38;4.70;;;32.50;29.80;;;;;;21120833;27;80739;-62
2021/08/11 21:13:16;;;;;;;30.38;5.82;;;32.40;30.10;;;;;;21119957;27;81268;-64
2021/08/11 21:23:18;;;;;;;32.25;6.47;;;32.00;30.80;;;;;;21119775;27;80156;-64
2021/08/11 21:33:20;;;;;;;33.78;6.93;;;31.80;31.40;;;;;;21119014;27;80704;-63
2021/08/11 21:43:24;;;;;;;33.85;6.78;;;31.50;31.90;;;;;;21139803;27;80893;-60
2021/08/11 21:53:26;;;;;;;35.38;6.95;;;31.40;31.90;;;;;;21151835;27;81307;-62
2021/08/11 22:03:28;;;;;;;31.23;5.85;;;31.30;32.10;;;;;;21132163;27;80946;-63
2021/08/11 22:13:30;;;;;;;26.60;6.03;;;31.20;32.50;;;;;;21151274;27;81892;-62
2021/08/11 22:23:34;;;;;;;32.72;5.50;;;31.10;32.60;;;;;;21130001;27;81075;-62
2021/08/11 22:33:37;;;;;;;24.88;3.83;;;31.00;31.70;;;;;;21129834;27;81934;-62
2021/08/11 22:43:41;;;;;;;28.58;4.03;;;30.90;31.50;;;;;;21130381;27;80593;-61
2021/08/11 22:53:43;;;;;;;20.67;4.57;;;30.90;31.00;;;;;;21128133;27;80804;-61
2021/08/11 23:03:45;;;;;;;20.50;4.30;;;30.80;31.00;;;;;;21127904;27;81018;-61
2021/08/11 23:13:47;;;;;;;23.88;5.63;;;30.70;31.60;;;;;;21127434;27;81150;-61
2021/08/11 23:23:49;;;;;;;25.90;4.85;;;30.60;33.50;;;;;;21146703;27;80631;-61
2021/08/11 23:33:52;;;;;;;49.20;19.15;;;30.40;33.40;;;;;;21127232;27;80922;-61
2021/08/11 23:43:54;;;;;;;45.80;17.83;;;30.20;33.80;;;;;;21132451;27;82725;-61
2021/08/11 23:53:56;;;;;;;23.27;7.82;;;30.10;32.80;;;;;;21114450;27;83732;-61
